aviador You're here:

FBSK Decoded Metar

GABERONE in BOTSWANA
Report Time2018-01-17 01:00:00
UTC Time2018-01-17 01:23:02
Flight Rules vfr VFR
Wind060° at 09 kt
W.Decomp.*RWY 08: 9.0 kt HW 0.8 kt LCW
W.Rank060° ranks 2
Current wind is above 060° avg. (7.9)
Visibility9999 m
Phenomena:N/A
Clouds:N/A
Expected CloudBase > 5,600 ft AGL from Temp-Dew spread
CeilingNone
Temp24°C (ISA +16)
Dew Point10°C (41% RH)
AAT20.8°C
QNH1019 hPa
Density Alt5,059 ft
Elevation3,297 ft
Report Wrong Elevation
Raw Report
METAR FBSK 170100Z 06009KT CAVOK 24/10 Q1019 NOSIG=

Extra information for FBSK:More info

Metar Taf Metar & Taf Last 4 Metars F.Rules Stats Wind Profile Meteogram Temp Stats Airport Information Weather charts Add Link Nearby VenuesMetar ALERT Operation Metar Decoded Social comments